Time;durP1;ratioP1;P1;durP2;ratioP2;P2;SDS_P1;SDS_P2;PMS_P1;PMS_P2;Temp;Humidity;BMP_temperature;BMP_pressure;BME280_temperature;BME280_humidity;BME280_pressure;Samples;Min_cycle;Max_cycle;Signal;HPM_P1;HPM_P2
2022/10/03 00:05:45;;;;;;;3.17;1.23;;;;;;;;;;20600725;28;20055;-67
2022/10/03 00:15:47;;;;;;;3.72;0.95;;;;;;;;;;20600474;28;20389;-65
2022/10/03 00:26:25;;;;;;;4.13;0.85;;;;;;;;;;20599298;28;20097;-64
2022/10/03 00:36:33;;;;;;;3.90;1.20;;;;;;;;;;20597954;28;20055;-63
2022/10/03 00:46:47;;;;;;;4.60;0.80;;;;;;;;;;20597188;28;20105;-66
2022/10/03 00:56:59;;;;;;;2.55;1.02;;;;;;;;;;20597727;28;20462;-64
2022/10/03 01:07:21;;;;;;;4.00;1.10;;;;;;;;;;20596475;28;20393;-64
2022/10/03 01:17:42;;;;;;;2.05;0.85;;;;;;;;;;20595188;28;20046;-65
2022/10/03 01:38:09;;;;;;;5.25;0.63;;;;;;;;;;20594790;28;20404;-65
2022/10/03 01:48:30;;;;;;;0.88;0.57;;;;;;;;;;20592597;28;20061;-65
2022/10/03 01:58:47;;;;;;;1.67;0.77;;;;;;;;;;20592872;28;20061;-65
2022/10/03 02:09:11;;;;;;;1.55;0.73;;;;;;;;;;20591250;28;20054;-68
2022/10/03 02:19:23;;;;;;;1.88;0.80;;;;;;;;;;20590256;28;20047;-66
2022/10/03 02:29:45;;;;;;;1.80;0.77;;;;;;;;;;20589966;28;20555;-68
2022/10/03 02:39:51;;;;;;;3.35;0.73;;;;;;;;;;20588825;28;20406;-68
2022/10/03 02:50:06;;;;;;;3.30;0.45;;;;;;;;;;20588464;28;20061;-70
2022/10/03 03:00:09;;;;;;;3.30;0.40;;;;;;;;;;20587312;28;20180;-68
2022/10/03 03:10:37;;;;;;;3.47;0.60;;;;;;;;;;20588122;28;20459;-69
2022/10/03 03:21:19;;;;;;;1.37;0.40;;;;;;;;;;20588700;28;20054;-68
2022/10/03 03:31:45;;;;;;;1.17;0.60;;;;;;;;;;20601033;28;20050;-68
2022/10/03 03:41:49;;;;;;;1.48;0.40;;;;;;;;;;20586821;28;20105;-70
2022/10/03 03:51:53;;;;;;;1.33;0.50;;;;;;;;;;20586758;28;20046;-69
2022/10/03 04:02:25;;;;;;;1.02;0.40;;;;;;;;;;20585098;28;20054;-67
2022/10/03 04:12:30;;;;;;;5.78;0.68;;;;;;;;;;20598893;28;20051;-68
2022/10/03 04:22:51;;;;;;;2.55;0.50;;;;;;;;;;20601065;28;20467;-70
2022/10/03 04:33:04;;;;;;;2.65;0.52;;;;;;;;;;20613619;28;20051;-69
2022/10/03 04:43:13;;;;;;;2.25;0.60;;;;;;;;;;20598185;28;20062;-68
2022/10/03 04:53:22;;;;;;;3.38;0.70;;;;;;;;;;20598169;28;20047;-66
2022/10/03 05:03:42;;;;;;;5.80;2.50;;;;;;;;;;20596321;28;20069;-69
2022/10/03 05:13:46;;;;;;;2.88;1.05;;;;;;;;;;20595652;28;20047;-67
2022/10/03 05:23:54;;;;;;;2.58;0.60;;;;;;;;;;20594599;28;20050;-68
2022/10/03 05:33:56;;;;;;;;;;;;;;;;;;20595457;28;20062;-69
2022/10/03 05:44:01;;;;;;;2.28;0.57;;;;;;;;;;20592910;28;19949;-69
2022/10/03 05:54:22;;;;;;;2.95;0.90;;;;;;;;;;20594017;28;20494;-68
2022/10/03 06:04:35;;;;;;;10.52;1.00;;;;;;;;;;20592196;28;20629;-68
2022/10/03 06:14:56;;;;;;;3.10;1.33;;;;;;;;;;20591473;28;20051;-64
2022/10/03 06:25:17;;;;;;;5.70;0.77;;;;;;;;;;20604576;28;20059;-68
2022/10/03 06:35:25;;;;;;;2.85;0.98;;;;;;;;;;20603634;28;20069;-67
2022/10/03 06:45:36;;;;;;;6.67;1.37;;;;;;;;;;20589336;28;20054;-66
2022/10/03 06:55:45;;;;;;;7.18;1.52;;;;;;;;;;20588625;28;20051;-68
2022/10/03 07:05:47;;;;;;;5.70;1.27;;;;;;;;;;20587695;28;20051;-69
2022/10/03 07:15:50;;;;;;;8.07;1.48;;;;;;;;;;20586904;28;20050;-68
2022/10/03 07:25:53;;;;;;;6.65;1.30;;;;;;;;;;20586636;28;20121;-68
2022/10/03 07:46:40;;;;;;;6.15;1.80;;;;;;;;;;20591240;28;20393;-68
2022/10/03 07:56:56;;;;;;;7.47;1.70;;;;;;;;;;20602654;28;20058;-70
2022/10/03 08:07:01;;;;;;;9.43;1.92;;;;;;;;;;20600989;28;20066;-69
2022/10/03 08:17:06;;;;;;;10.40;2.30;;;;;;;;;;20601338;28;20381;-69
2022/10/03 08:27:22;;;;;;;11.07;2.75;;;;;;;;;;20599495;28;20117;-69
2022/10/03 08:37:40;;;;;;;11.73;2.08;;;;;;;;;;20614583;28;20476;-68
2022/10/03 08:47:58;;;;;;;10.90;2.20;;;;;;;;;;20597688;28;20183;-68
2022/10/03 08:58:18;;;;;;;9.83;4.50;;;;;;;;;;20596098;28;20669;-68
2022/10/03 09:08:30;;;;;;;21.83;3.45;;;;;;;;;;20596109;28;20047;-68
2022/10/03 09:18:31;;;;;;;13.77;2.10;;;;;;;;;;20595204;28;20043;-68
2022/10/03 09:28:36;;;;;;;29.67;13.82;;;;;;;;;;20595230;28;20130;-69
2022/10/03 09:38:59;;;;;;;8.20;1.65;;;;;;;;;;20594154;28;20054;-69
2022/10/03 09:49:22;;;;;;;8.23;1.73;;;;;;;;;;20593184;28;20054;-68
2022/10/03 09:59:36;;;;;;;5.28;1.00;;;;;;;;;;20592572;28;20051;-65
2022/10/03 10:09:50;;;;;;;6.35;1.15;;;;;;;;;;20593391;28;20512;-68
2022/10/03 10:19:55;;;;;;;6.32;0.90;;;;;;;;;;20593402;28;20117;-70
2022/10/03 10:29:57;;;;;;;5.22;0.73;;;;;;;;;;20592048;28;20055;-68
2022/10/03 10:40:18;;;;;;;2.45;1.23;;;;;;;;;;20589998;28;20085;-68
2022/10/03 10:50:26;;;;;;;5.65;1.08;;;;;;;;;;20604651;28;20414;-68
2022/10/03 11:00:48;;;;;;;6.10;1.33;;;;;;;;;;20589088;28;20050;-69
2022/10/03 11:11:09;;;;;;;5.93;1.00;;;;;;;;;;20587505;28;20061;-68
2022/10/03 11:21:24;;;;;;;6.15;1.38;;;;;;;;;;20587566;28;20046;-70
2022/10/03 11:31:59;;;;;;;9.10;1.88;;;;;;;;;;20586861;28;20051;-69
2022/10/03 11:42:10;;;;;;;7.00;1.40;;;;;;;;;;20657733;28;20062;-69
2022/10/03 11:52:30;;;;;;;4.68;1.55;;;;;;;;;;20657774;28;20581;-69
2022/10/03 12:02:50;;;;;;;4.75;1.27;;;;;;;;;;20656957;28;20046;-68
2022/10/03 12:12:53;;;;;;;3.85;0.73;;;;;;;;;;20627652;28;20063;-69
2022/10/03 12:22:55;;;;;;;38.25;26.40;;;;;;;;;;20585746;28;20492;-71
2022/10/03 12:33:14;;;;;;;5.95;1.27;;;;;;;;;;20588503;28;20117;-69
2022/10/03 12:43:15;;;;;;;6.87;2.50;;;;;;;;;;20595965;28;20062;-70
2022/10/03 12:53:17;;;;;;;5.03;0.90;;;;;;;;;;20597000;28;20106;-72
2022/10/03 13:03:37;;;;;;;3.60;1.27;;;;;;;;;;20596924;28;20046;-74
2022/10/03 13:13:54;;;;;;;3.13;0.73;;;;;;;;;;20595165;28;20054;-72
2022/10/03 13:24:00;;;;;;;5.18;2.13;;;;;;;;;;20594907;28;20051;-73
2022/10/03 13:34:12;;;;;;;8.35;1.08;;;;;;;;;;20593442;28;20057;-73
2022/10/03 13:44:17;;;;;;;2.13;0.95;;;;;;;;;;20591865;28;20046;-71
2022/10/03 13:54:38;;;;;;;7.75;1.20;;;;;;;;;;20591590;28;20066;-72
2022/10/03 14:04:43;;;;;;;4.80;0.82;;;;;;;;;;20606442;28;20109;-73
2022/10/03 14:15:06;;;;;;;3.20;0.82;;;;;;;;;;20590904;28;20497;-73
2022/10/03 14:25:21;;;;;;;3.33;0.73;;;;;;;;;;20590624;28;20055;-70
2022/10/03 14:35:33;;;;;;;3.97;1.13;;;;;;;;;;20589158;28;20051;-74
2022/10/03 14:45:41;;;;;;;10.88;5.13;;;;;;;;;;20590172;28;20051;-74
2022/10/03 14:55:55;;;;;;;3.15;1.20;;;;;;;;;;20588774;28;20051;-73
2022/10/03 15:06:09;;;;;;;6.70;1.30;;;;;;;;;;20588638;28;20105;-75
2022/10/03 15:16:17;;;;;;;2.47;1.27;;;;;;;;;;20587367;28;20050;-73
2022/10/03 15:26:23;;;;;;;8.40;0.93;;;;;;;;;;20588134;28;20047;-68
2022/10/03 15:36:27;;;;;;;4.22;1.75;;;;;;;;;;20587022;28;20561;-66
2022/10/03 15:46:29;;;;;;;3.67;1.75;;;;;;;;;;20586150;28;20050;-73
2022/10/03 15:56:34;;;;;;;2.47;0.60;;;;;;;;;;20585725;28;20051;-72
2022/10/03 16:06:36;;;;;;;2.42;0.70;;;;;;;;;;20589546;28;20064;-64
2022/10/03 16:16:46;;;;;;;2.08;1.00;;;;;;;;;;20599130;28;20121;-72
2022/10/03 16:26:54;;;;;;;5.25;1.20;;;;;;;;;;20600127;28;20051;-72
2022/10/03 16:36:57;;;;;;;5.05;1.70;;;;;;;;;;20598687;28;20086;-72
2022/10/03 16:47:01;;;;;;;6.45;1.30;;;;;;;;;;20598152;28;20076;-68
2022/10/03 16:57:08;;;;;;;4.07;1.80;;;;;;;;;;20598454;28;20062;-74
2022/10/03 17:07:13;;;;;;;4.77;1.33;;;;;;;;;;20597750;28;20447;-68
2022/10/03 17:17:21;;;;;;;5.32;1.50;;;;;;;;;;20595980;28;20057;-69
2022/10/03 17:27:23;;;;;;;8.70;2.60;;;;;;;;;;20596665;28;20597;-71
2022/10/03 17:37:37;;;;;;;6.93;1.98;;;;;;;;;;20594438;28;20106;-73
2022/10/03 17:47:54;;;;;;;5.93;2.30;;;;;;;;;;20593834;28;20050;-74
2022/10/03 17:58:00;;;;;;;5.30;2.20;;;;;;;;;;20593391;28;20130;-72
2022/10/03 18:08:06;;;;;;;8.68;3.08;;;;;;;;;;20598881;28;20051;-70
2022/10/03 18:18:38;;;;;;;9.82;4.80;;;;;;;;;;20590547;28;20173;-71
2022/10/03 18:28:46;;;;;;;9.75;4.13;;;;;;;;;;20589505;28;20051;-72
2022/10/03 18:38:49;;;;;;;11.98;4.82;;;;;;;;;;20589009;28;20101;-70
2022/10/03 18:49:18;;;;;;;6.65;3.67;;;;;;;;;;20589168;28;20419;-71
2022/10/03 18:59:24;;;;;;;20.73;9.27;;;;;;;;;;20588467;28;20082;-68
2022/10/03 19:09:29;;;;;;;8.52;4.32;;;;;;;;;;20587675;28;20074;-71
2022/10/03 19:19:34;;;;;;;9.65;4.40;;;;;;;;;;20587045;28;20051;-71
2022/10/03 19:29:40;;;;;;;10.20;4.70;;;;;;;;;;20586760;28;20125;-71
2022/10/03 19:39:42;;;;;;;10.23;4.63;;;;;;;;;;20587721;28;20070;-71
2022/10/03 19:50:00;;;;;;;11.48;5.32;;;;;;;;;;20601455;28;20058;-71
2022/10/03 20:00:19;;;;;;;23.52;12.73;;;;;;;;;;20601974;28;20043;-68
2022/10/03 20:10:39;;;;;;;13.27;6.97;;;;;;;;;;20602085;28;20133;-71
2022/10/03 20:20:42;;;;;;;16.17;6.95;;;;;;;;;;20600238;28;20112;-70
2022/10/03 20:30:48;;;;;;;16.85;7.85;;;;;;;;;;20600345;28;20051;-70
2022/10/03 20:41:07;;;;;;;20.73;7.97;;;;;;;;;;20600493;28;20066;-71
2022/10/03 20:51:22;;;;;;;26.38;9.18;;;;;;;;;;20599103;28;20058;-70
2022/10/03 21:01:27;;;;;;;16.88;6.70;;;;;;;;;;20613745;28;20515;-73
2022/10/03 21:11:31;;;;;;;14.27;3.78;;;;;;;;;;20598593;28;20138;-72
2022/10/03 21:21:35;;;;;;;11.38;2.55;;;;;;;;;;20597862;28;20104;-72
2022/10/03 21:31:41;;;;;;;7.40;1.90;;;;;;;;;;20596204;28;20090;-73
2022/10/03 21:41:49;;;;;;;7.32;1.67;;;;;;;;;;20595315;28;20487;-72
2022/10/03 21:51:57;;;;;;;4.93;1.65;;;;;;;;;;20594373;28;20057;-70
2022/10/03 22:02:17;;;;;;;6.65;1.80;;;;;;;;;;20593922;28;20051;-68
2022/10/03 22:12:19;;;;;;;5.70;1.50;;;;;;;;;;20595241;28;20490;-66
2022/10/03 22:22:35;;;;;;;6.65;1.85;;;;;;;;;;20593949;28;20097;-72
2022/10/03 22:32:43;;;;;;;4.45;1.30;;;;;;;;;;20591689;28;20082;-72
2022/10/03 22:42:48;;;;;;;4.82;1.52;;;;;;;;;;20590140;28;20101;-66
2022/10/03 22:52:51;;;;;;;5.55;1.92;;;;;;;;;;20588925;28;20137;-71
2022/10/03 23:03:05;;;;;;;5.65;1.98;;;;;;;;;;20588473;28;20484;-72
2022/10/03 23:13:12;;;;;;;6.70;1.85;;;;;;;;;;20588722;28;20057;-69
2022/10/03 23:23:19;;;;;;;6.00;1.77;;;;;;;;;;20587543;28;20051;-72
2022/10/03 23:33:31;;;;;;;5.97;1.37;;;;;;;;;;20587080;28;20313;-72
2022/10/03 23:43:37;;;;;;;4.75;1.27;;;;;;;;;;20587974;28;20519;-68
2022/10/03 23:53:41;;;;;;;3.78;1.05;;;;;;;;;;20587604;28;20058;-67
